PWSweather.com
Personal Weather Stations
Station Observations
IHTIMAN1
Neighbourhood 1, IhtimanBG 2050

Neighbourhood 1IhtimanBG 2050

Lat: 42.436852, Lon: 23.817921

Elevation: 2066

Station Type: Oregon Scientific WMR968

http://ihtiman-meteo.com

High Low Average
Temperature 82.9°F28.3°F 52.5°F11.4°F 68.2°F20.1°F
Dew Point 62.9°F17.2°F 50.8°F10.4°F 57.2°F14.0°F
Winds 5.2 mph SE8.4 mph SE Calm Calm 1.0 mph 1.6 mph
Wind Gusts 8.0 mph12.9 mph -- 1.7 mph2.7 mph
Humidity 99% 47% 71%
Pressure 30.06 in1017.90 in 29.94 in1013.90 in -
Precipitation 0.00 in0.00 in - -
Hour Temp Dew Point Humidity Winds Wind Gusts Pressure Precip Precip Rate Daily Precip Total
12:00 AM 59.2°F15.1°C 54.7°F12.6°C 85% Calm Calm -- 30.06 in1017.9 mb - 0.00 in0.0 mm 0.00 in0.0 mm
12:10 AM 58.8°F14.9°C 54.6°F12.6°C 86% Calm Calm -- 30.06 in1017.9 mb - 0.00 in0.0 mm 0.00 in0.0 mm
12:20 AM 58.5°F14.7°C 54.3°F12.4°C 86% Calm Calm -- 30.06 in1017.9 mb - 0.00 in0.0 mm 0.00 in0.0 mm
12:30 AM 58.1°F14.5°C 53.9°F12.2°C 86% Calm Calm -- 30.06 in1017.9 mb - 0.00 in0.0 mm 0.00 in0.0 mm
12:40 AM 57.9°F14.4°C 53.7°F12.1°C 86% Calm Calm -- 30.06 in1017.9 mb - 0.00 in0.0 mm 0.00 in0.0 mm
12:50 AM 57.6°F14.2°C 53.7°F12.1°C 87% Calm Calm -- 30.06 in1017.9 mb - 0.00 in0.0 mm 0.00 in0.0 mm
01:00 AM 57.6°F14.2°C 54.0°F12.2°C 88% Calm Calm -- 30.06 in1017.9 mb - 0.00 in0.0 mm 0.00 in0.0 mm
01:10 AM 57.4°F14.1°C 53.9°F12.2°C 88% Calm Calm -- 30.06 in1017.9 mb - 0.00 in0.0 mm 0.00 in0.0 mm
01:20 AM 57.2°F14.0°C 53.7°F12.1°C 88% Calm Calm -- 30.06 in1017.9 mb - 0.00 in0.0 mm 0.00 in0.0 mm
01:30 AM 57.2°F14.0°C 53.7°F12.1°C 88% Calm Calm -- 30.06 in1017.9 mb - 0.00 in0.0 mm 0.00 in0.0 mm
01:40 AM 56.9°F13.8°C 53.7°F12.1°C 89% Calm Calm -- 30.06 in1017.9 mb - 0.00 in0.0 mm 0.00 in0.0 mm
01:50 AM 56.7°F13.7°C 53.5°F11.9°C 89% Calm Calm -- 30.06 in1017.9 mb - 0.00 in0.0 mm 0.00 in0.0 mm
02:00 AM 56.5°F13.6°C 53.6°F12.0°C 90% Calm Calm -- 30.06 in1017.9 mb - 0.00 in0.0 mm 0.00 in0.0 mm
02:10 AM 56.3°F13.5°C 53.4°F11.9°C 90% Calm Calm -- 30.06 in1017.9 mb - 0.00 in0.0 mm 0.00 in0.0 mm
02:20 AM 55.9°F13.3°C 53.0°F11.7°C 90% Calm Calm -- 30.03 in1016.9 mb - 0.00 in0.0 mm 0.00 in0.0 mm
02:30 AM 55.8°F13.2°C 52.9°F11.6°C 90% Calm Calm -- 30.03 in1016.9 mb - 0.00 in0.0 mm 0.00 in0.0 mm
02:40 AM 55.6°F13.1°C 53.0°F11.7°C 91% Calm Calm -- 30.03 in1016.9 mb - 0.00 in0.0 mm 0.00 in0.0 mm
02:50 AM 55.4°F13.0°C 52.8°F11.6°C 91% Calm Calm -- 30.03 in1016.9 mb - 0.00 in0.0 mm 0.00 in0.0 mm
03:00 AM 55.4°F13.0°C 52.8°F11.6°C 91% Calm Calm -- 30.03 in1016.9 mb - 0.00 in0.0 mm 0.00 in0.0 mm
03:10 AM 55.0°F12.8°C 52.8°F11.6°C 92% Calm Calm -- 30.03 in1016.9 mb - 0.00 in0.0 mm 0.00 in0.0 mm
03:20 AM 54.5°F12.5°C 52.2°F11.2°C 92% Calm Calm -- 30.03 in1016.9 mb - 0.00 in0.0 mm 0.00 in0.0 mm
03:30 AM 54.3°F12.4°C 52.0°F11.1°C 92% Calm Calm -- 30.03 in1016.9 mb - 0.00 in0.0 mm 0.00 in0.0 mm
03:40 AM 54.0°F12.2°C 51.7°F10.9°C 92% Calm Calm -- 30.03 in1016.9 mb - 0.00 in0.0 mm 0.00 in0.0 mm
03:50 AM 53.8°F12.1°C 51.5°F10.8°C 92% Calm Calm -- 30.03 in1016.9 mb - 0.00 in0.0 mm 0.00 in0.0 mm
04:00 AM 53.7°F12.1°C 51.4°F10.8°C 92% Calm Calm -- 30.03 in1016.9 mb - 0.00 in0.0 mm 0.00 in0.0 mm
04:10 AM 53.6°F12.0°C 51.6°F10.9°C 93% Calm Calm -- 30.03 in1016.9 mb - 0.00 in0.0 mm 0.00 in0.0 mm
04:20 AM 53.4°F11.9°C 51.4°F10.8°C 93% Calm Calm -- 30.03 in1016.9 mb - 0.00 in0.0 mm 0.00 in0.0 mm
04:30 AM 53.3°F11.8°C 51.3°F10.7°C 93% Calm Calm -- 30.03 in1016.9 mb - 0.00 in0.0 mm 0.00 in0.0 mm
04:40 AM 53.2°F11.8°C 51.3°F10.7°C 93% Calm Calm -- 30.03 in1016.9 mb - 0.00 in0.0 mm 0.00 in0.0 mm
04:50 AM 53.2°F11.8°C 51.3°F10.7°C 93% Calm Calm -- 30.03 in1016.9 mb - 0.00 in0.0 mm 0.00 in0.0 mm
05:00 AM 53.1°F11.7°C 51.1°F10.6°C 93% Calm Calm -- 30.03 in1016.9 mb - 0.00 in0.0 mm 0.00 in0.0 mm
05:10 AM 53.1°F11.7°C 51.1°F10.6°C 93% Calm Calm -- 30.03 in1016.9 mb - 0.00 in0.0 mm 0.00 in0.0 mm
05:20 AM 52.9°F11.6°C 51.2°F10.7°C 94% Calm Calm -- 30.03 in1016.9 mb - 0.00 in0.0 mm 0.00 in0.0 mm
05:30 AM 52.7°F11.5°C 51.0°F10.6°C 94% Calm Calm -- 30.03 in1016.9 mb - 0.00 in0.0 mm 0.00 in0.0 mm
05:40 AM 52.7°F11.5°C 51.0°F10.6°C 94% Calm Calm -- 30.03 in1016.9 mb - 0.00 in0.0 mm 0.00 in0.0 mm
05:50 AM 52.5°F11.4°C 50.8°F10.4°C 94% Calm Calm -- 30.03 in1016.9 mb - 0.00 in0.0 mm 0.00 in0.0 mm
06:00 AM 52.5°F11.4°C 50.8°F10.4°C 94% Calm Calm -- 30.03 in1016.9 mb - 0.00 in0.0 mm 0.00 in0.0 mm
06:10 AM 52.5°F11.4°C 50.8°F10.4°C 94% Calm Calm -- 30.03 in1016.9 mb - 0.00 in0.0 mm 0.00 in0.0 mm
06:20 AM 52.7°F11.5°C 51.0°F10.6°C 94% Calm Calm -- 30.03 in1016.9 mb - 0.00 in0.0 mm 0.00 in0.0 mm
06:30 AM 53.1°F11.7°C 51.7°F10.9°C 95% Calm Calm -- 30.03 in1016.9 mb - 0.00 in0.0 mm 0.00 in0.0 mm
06:40 AM 53.2°F11.8°C 51.8°F11.0°C 95% Calm Calm -- 30.03 in1016.9 mb - 0.00 in0.0 mm 0.00 in0.0 mm
06:50 AM 53.8°F12.1°C 52.4°F11.3°C 95% Calm Calm -- 30.03 in1016.9 mb - 0.00 in0.0 mm 0.00 in0.0 mm
07:00 AM 54.3°F12.4°C 52.9°F11.6°C 95% Calm Calm -- 30.03 in1016.9 mb - 0.00 in0.0 mm 0.00 in0.0 mm
07:10 AM 54.9°F12.7°C 53.5°F11.9°C 95% Calm Calm -- 30.03 in1016.9 mb - 0.00 in0.0 mm 0.00 in0.0 mm
07:20 AM 55.9°F13.3°C 54.8°F12.7°C 96% Calm Calm -- 30.03 in1016.9 mb - 0.00 in0.0 mm 0.00 in0.0 mm
07:30 AM 57.0°F13.9°C 56.8°F13.8°C 99% Calm Calm -- 30.03 in1016.9 mb - 0.00 in0.0 mm 0.00 in0.0 mm
07:40 AM 58.1°F14.5°C 57.8°F14.3°C 99% Calm Calm -- 30.03 in1016.9 mb - 0.00 in0.0 mm 0.00 in0.0 mm
07:50 AM 59.5°F15.3°C 59.0°F15.0°C 98% Calm Calm -- 30.03 in1016.9 mb - 0.00 in0.0 mm 0.00 in0.0 mm
08:00 AM 61.1°F16.2°C 59.3°F15.2°C 94% Calm Calm -- 30.03 in1016.9 mb - 0.00 in0.0 mm 0.00 in0.0 mm
08:10 AM 62.4°F16.9°C 59.4°F15.2°C 90% Calm Calm -- 30.03 in1016.9 mb - 0.00 in0.0 mm 0.00 in0.0 mm
08:20 AM 63.3°F17.4°C 59.3°F15.2°C 87% Calm Calm -- 30.03 in1016.9 mb - 0.00 in0.0 mm 0.00 in0.0 mm
08:30 AM 64.7°F18.2°C 60.5°F15.8°C 86% Calm Calm -- 30.03 in1016.9 mb - 0.00 in0.0 mm 0.00 in0.0 mm
08:40 AM 65.9°F18.8°C 60.9°F16.1°C 84% Calm Calm -- 30.03 in1016.9 mb - 0.00 in0.0 mm 0.00 in0.0 mm
08:50 AM 66.9°F19.4°C 60.8°F16.0°C 81% Calm Calm -- 30.03 in1016.9 mb - 0.00 in0.0 mm 0.00 in0.0 mm
09:00 AM 68.0°F20.0°C 60.5°F15.8°C 77% Calm Calm -- 30.03 in1016.9 mb - 0.00 in0.0 mm 0.00 in0.0 mm
09:10 AM 69.0°F20.6°C 61.4°F16.3°C 77% Calm Calm -- 30.03 in1016.9 mb - 0.00 in0.0 mm 0.00 in0.0 mm
09:20 AM 70.5°F21.4°C 62.2°F16.8°C 75% Calm Calm -- 30.03 in1016.9 mb - 0.00 in0.0 mm 0.00 in0.0 mm
09:30 AM 71.3°F21.8°C 62.2°F16.8°C 73% Calm Calm -- 30.03 in1016.9 mb - 0.00 in0.0 mm 0.00 in0.0 mm
09:40 AM 72.7°F22.6°C 62.0°F16.7°C 69% 1.0 mph SE1.6 kmh SE -- 30.03 in1016.9 mb - 0.00 in0.0 mm 0.00 in0.0 mm
09:50 AM 73.6°F23.1°C 61.5°F16.4°C 66% Calm Calm 4.0 mph6.4 kmh 30.03 in1016.9 mb - 0.00 in0.0 mm 0.00 in0.0 mm
10:00 AM 74.3°F23.5°C 61.8°F16.6°C 65% Calm Calm 3.1 mph5.0 kmh 30.03 in1016.9 mb - 0.00 in0.0 mm 0.00 in0.0 mm
10:10 AM 75.0°F23.9°C 62.0°F16.7°C 64% Calm Calm -- 30.03 in1016.9 mb - 0.00 in0.0 mm 0.00 in0.0 mm
10:20 AM 76.2°F24.6°C 61.8°F16.6°C 61% 0.9 mph E1.4 kmh E 2.2 mph3.5 kmh 30.03 in1016.9 mb - 0.00 in0.0 mm 0.00 in0.0 mm
10:30 AM 76.9°F24.9°C 62.9°F17.2°C 62% 3.8 mph SSE6.1 kmh SSE 3.6 mph5.8 kmh 30.03 in1016.9 mb - 0.00 in0.0 mm 0.00 in0.0 mm
10:40 AM 77.4°F25.2°C 62.4°F16.9°C 60% 3.1 mph SSW5.0 kmh SSW 4.0 mph6.4 kmh 30.03 in1016.9 mb - 0.00 in0.0 mm 0.00 in0.0 mm
10:50 AM 77.4°F25.2°C 61.9°F16.6°C 59% 3.3 mph ESE5.3 kmh ESE 3.6 mph5.8 kmh 30.03 in1016.9 mb - 0.00 in0.0 mm 0.00 in0.0 mm
11:00 AM 77.2°F25.1°C 60.3°F15.7°C 56% 4.7 mph E7.6 kmh E 5.4 mph8.7 kmh 30.03 in1016.9 mb - 0.00 in0.0 mm 0.00 in0.0 mm
11:10 AM 77.6°F25.3°C 60.7°F15.9°C 56% Calm Calm -- 30.00 in1015.9 mb - 0.00 in0.0 mm 0.00 in0.0 mm
11:20 AM 78.6°F25.9°C 62.6°F17.0°C 58% 4.5 mph SE7.2 kmh SE 7.6 mph12.2 kmh 30.00 in1015.9 mb - 0.00 in0.0 mm 0.00 in0.0 mm
11:30 AM 78.6°F25.9°C 61.6°F16.4°C 56% 4.8 mph ESE7.7 kmh ESE 7.2 mph11.6 kmh 30.00 in1015.9 mb - 0.00 in0.0 mm 0.00 in0.0 mm
11:40 AM 78.8°F26.0°C 60.7°F15.9°C 54% Calm Calm 7.6 mph12.2 kmh 30.00 in1015.9 mb - 0.00 in0.0 mm 0.00 in0.0 mm
11:50 AM 78.8°F26.0°C 61.3°F16.3°C 55% 2.9 mph SE4.7 kmh SE 4.0 mph6.4 kmh 30.00 in1015.9 mb - 0.00 in0.0 mm 0.00 in0.0 mm
12:00 PM 79.1°F26.2°C 59.4°F15.2°C 51% 3.0 mph ENE4.8 kmh ENE 5.4 mph8.7 kmh 30.00 in1015.9 mb - 0.00 in0.0 mm 0.00 in0.0 mm
12:10 PM 79.7°F26.5°C 60.0°F15.6°C 51% 3.5 mph ENE5.6 kmh ENE 4.9 mph7.9 kmh 30.00 in1015.9 mb - 0.00 in0.0 mm 0.00 in0.0 mm
12:20 PM 80.4°F26.9°C 60.6°F15.9°C 51% 3.7 mph SSE6.0 kmh SSE 8.0 mph12.9 kmh 30.00 in1015.9 mb - 0.00 in0.0 mm 0.00 in0.0 mm
12:30 PM 80.5°F26.9°C 60.2°F15.7°C 50% 2.2 mph SE3.5 kmh SE 3.6 mph5.8 kmh 30.00 in1015.9 mb - 0.00 in0.0 mm 0.00 in0.0 mm
12:40 PM 80.1°F26.7°C 60.3°F15.7°C 51% 3.1 mph SE5.0 kmh SE 3.6 mph5.8 kmh 30.00 in1015.9 mb - 0.00 in0.0 mm 0.00 in0.0 mm
12:50 PM 80.7°F27.1°C 60.9°F16.1°C 51% 2.9 mph ESE4.7 kmh ESE 6.3 mph10.1 kmh 30.00 in1015.9 mb - 0.00 in0.0 mm 0.00 in0.0 mm
01:00 PM 81.4°F27.4°C 60.9°F16.1°C 50% 3.0 mph SSE4.8 kmh SSE 3.6 mph5.8 kmh 30.00 in1015.9 mb - 0.00 in0.0 mm 0.00 in0.0 mm
01:10 PM 81.8°F27.7°C 61.4°F16.3°C 50% 4.5 mph SE7.2 kmh SE 6.3 mph10.1 kmh 30.00 in1015.9 mb - 0.00 in0.0 mm 0.00 in0.0 mm
01:20 PM 81.7°F27.6°C 60.7°F15.9°C 49% Calm Calm 3.1 mph5.0 kmh 30.00 in1015.9 mb - 0.00 in0.0 mm 0.00 in0.0 mm
01:30 PM 82.0°F27.8°C 61.6°F16.4°C 50% 1.2 mph SE1.9 kmh SE 5.8 mph9.3 kmh 30.00 in1015.9 mb - 0.00 in0.0 mm 0.00 in0.0 mm
01:40 PM 81.7°F27.6°C 60.1°F15.6°C 48% 3.3 mph ENE5.3 kmh ENE 4.0 mph6.4 kmh 30.00 in1015.9 mb - 0.00 in0.0 mm 0.00 in0.0 mm
01:50 PM 82.0°F27.8°C 60.4°F15.8°C 48% 0.8 mph SW1.3 kmh SW 2.7 mph4.3 kmh 30.00 in1015.9 mb - 0.00 in0.0 mm 0.00 in0.0 mm
02:00 PM 82.2°F27.9°C 61.7°F16.5°C 50% 1.2 mph SE1.9 kmh SE 5.4 mph8.7 kmh 30.00 in1015.9 mb - 0.00 in0.0 mm 0.00 in0.0 mm
02:10 PM 82.2°F27.9°C 60.6°F15.9°C 48% 3.4 mph S5.5 kmh S 4.0 mph6.4 kmh 30.00 in1015.9 mb - 0.00 in0.0 mm 0.00 in0.0 mm
02:20 PM 82.4°F28.0°C 60.2°F15.7°C 47% Calm Calm 4.9 mph7.9 kmh 29.97 in1014.9 mb - 0.00 in0.0 mm 0.00 in0.0 mm
02:30 PM 82.2°F27.9°C 60.5°F15.8°C 48% 3.3 mph SSE5.3 kmh SSE 4.0 mph6.4 kmh 29.97 in1014.9 mb - 0.00 in0.0 mm 0.00 in0.0 mm
02:40 PM 82.5°F28.1°C 60.9°F16.1°C 48% 2.7 mph SE4.3 kmh SE 4.9 mph7.9 kmh 29.97 in1014.9 mb - 0.00 in0.0 mm 0.00 in0.0 mm
02:50 PM 82.9°F28.3°C 60.6°F15.9°C 47% 3.8 mph E6.1 kmh E 3.6 mph5.8 kmh 29.97 in1014.9 mb - 0.00 in0.0 mm 0.00 in0.0 mm
03:00 PM 82.8°F28.2°C 61.1°F16.2°C 48% 3.4 mph ENE5.5 kmh ENE 3.6 mph5.8 kmh 29.97 in1014.9 mb - 0.00 in0.0 mm 0.00 in0.0 mm
03:10 PM 82.4°F28.0°C 60.1°F15.6°C 47% 0.8 mph NE1.3 kmh NE 2.7 mph4.3 kmh 29.97 in1014.9 mb - 0.00 in0.0 mm 0.00 in0.0 mm
03:20 PM 82.4°F28.0°C 60.1°F15.6°C 47% 3.8 mph SSE6.1 kmh SSE 4.0 mph6.4 kmh 29.97 in1014.9 mb - 0.00 in0.0 mm 0.00 in0.0 mm
03:30 PM 82.3°F27.9°C 60.6°F15.9°C 48% 1.7 mph SE2.7 kmh SE -- 29.97 in1014.9 mb - 0.00 in0.0 mm 0.00 in0.0 mm
03:40 PM 82.0°F27.8°C 60.4°F15.8°C 48% 5.0 mph ESE8.0 kmh ESE 7.2 mph11.6 kmh 29.97 in1014.9 mb - 0.00 in0.0 mm 0.00 in0.0 mm
03:50 PM 82.2°F27.9°C 60.6°F15.9°C 48% 2.6 mph ESE4.2 kmh ESE 4.9 mph7.9 kmh 29.97 in1014.9 mb - 0.00 in0.0 mm 0.00 in0.0 mm
04:00 PM 81.5°F27.5°C 59.9°F15.5°C 48% Calm Calm -- 29.97 in1014.9 mb - 0.00 in0.0 mm 0.00 in0.0 mm
04:10 PM 81.7°F27.6°C 60.1°F15.6°C 48% Calm Calm 6.3 mph10.1 kmh 29.97 in1014.9 mb - 0.00 in0.0 mm 0.00 in0.0 mm
04:20 PM 81.5°F27.5°C 59.9°F15.5°C 48% 5.2 mph SE8.4 kmh SE 5.4 mph8.7 kmh 29.94 in1013.9 mb - 0.00 in0.0 mm 0.00 in0.0 mm
04:30 PM 81.3°F27.4°C 60.3°F15.7°C 49% 3.5 mph SSE5.6 kmh SSE 4.0 mph6.4 kmh 29.94 in1013.9 mb - 0.00 in0.0 mm 0.00 in0.0 mm
04:40 PM 81.3°F27.4°C 60.9°F16.1°C 50% 1.4 mph SE2.3 kmh SE 6.7 mph10.8 kmh 29.94 in1013.9 mb - 0.00 in0.0 mm 0.00 in0.0 mm
04:50 PM 80.8°F27.1°C 60.4°F15.8°C 50% 3.1 mph SE5.0 kmh SE 4.0 mph6.4 kmh 29.94 in1013.9 mb - 0.00 in0.0 mm 0.00 in0.0 mm
05:00 PM 80.8°F27.1°C 59.8°F15.4°C 49% 1.5 mph SE2.4 kmh SE 4.0 mph6.4 kmh 29.94 in1013.9 mb - 0.00 in0.0 mm 0.00 in0.0 mm
05:10 PM 80.2°F26.8°C 59.9°F15.5°C 50% 4.1 mph SE6.6 kmh SE 5.8 mph9.3 kmh 29.94 in1013.9 mb - 0.00 in0.0 mm 0.00 in0.0 mm
05:20 PM 79.7°F26.5°C 59.4°F15.2°C 50% 3.7 mph SE6.0 kmh SE 5.4 mph8.7 kmh 29.94 in1013.9 mb - 0.00 in0.0 mm 0.00 in0.0 mm
05:30 PM 79.5°F26.4°C 59.2°F15.1°C 50% 3.6 mph E5.8 kmh E 4.0 mph6.4 kmh 29.94 in1013.9 mb - 0.00 in0.0 mm 0.00 in0.0 mm
05:40 PM 79.2°F26.2°C 58.9°F14.9°C 50% 4.5 mph SE7.2 kmh SE 5.8 mph9.3 kmh 29.94 in1013.9 mb - 0.00 in0.0 mm 0.00 in0.0 mm
05:50 PM 79.0°F26.1°C 58.8°F14.9°C 50% 3.6 mph SSE5.8 kmh SSE 5.4 mph8.7 kmh 29.94 in1013.9 mb - 0.00 in0.0 mm 0.00 in0.0 mm
06:00 PM 79.0°F26.1°C 58.8°F14.9°C 50% 2.8 mph SE4.5 kmh SE 4.0 mph6.4 kmh 29.94 in1013.9 mb - 0.00 in0.0 mm 0.00 in0.0 mm
06:10 PM 78.4°F25.8°C 58.8°F14.9°C 51% 3.4 mph ESE5.5 kmh ESE 5.4 mph8.7 kmh 29.94 in1013.9 mb - 0.00 in0.0 mm 0.00 in0.0 mm
06:20 PM 78.1°F25.6°C 58.5°F14.7°C 51% 3.6 mph ESE5.8 kmh ESE 4.9 mph7.9 kmh 29.94 in1013.9 mb - 0.00 in0.0 mm 0.00 in0.0 mm
06:30 PM 77.5°F25.3°C 58.0°F14.4°C 51% 4.1 mph SE6.6 kmh SE 4.9 mph7.9 kmh 29.94 in1013.9 mb - 0.00 in0.0 mm 0.00 in0.0 mm
06:40 PM 77.0°F25.0°C 58.0°F14.4°C 52% 1.3 mph ESE2.1 kmh ESE 3.6 mph5.8 kmh 29.94 in1013.9 mb - 0.00 in0.0 mm 0.00 in0.0 mm
06:50 PM 76.6°F24.8°C 57.7°F14.3°C 52% Calm Calm 4.9 mph7.9 kmh 29.94 in1013.9 mb - 0.00 in0.0 mm 0.00 in0.0 mm
07:00 PM 76.5°F24.7°C 58.6°F14.8°C 54% Calm Calm 2.7 mph4.3 kmh 29.94 in1013.9 mb - 0.00 in0.0 mm 0.00 in0.0 mm
07:10 PM 76.1°F24.5°C 58.2°F14.6°C 54% Calm Calm -- 29.94 in1013.9 mb - 0.00 in0.0 mm 0.00 in0.0 mm
07:20 PM 75.7°F24.3°C 57.9°F14.4°C 54% Calm Calm -- 29.94 in1013.9 mb - 0.00 in0.0 mm 0.00 in0.0 mm
07:30 PM 75.2°F24.0°C 57.9°F14.4°C 55% Calm Calm -- 29.94 in1013.9 mb - 0.00 in0.0 mm 0.00 in0.0 mm
07:40 PM 74.4°F23.6°C 58.6°F14.8°C 58% Calm Calm -- 29.97 in1014.9 mb - 0.00 in0.0 mm 0.00 in0.0 mm
07:50 PM 73.8°F23.2°C 58.5°F14.7°C 59% Calm Calm -- 29.97 in1014.9 mb - 0.00 in0.0 mm 0.00 in0.0 mm
08:00 PM 73.2°F22.9°C 59.4°F15.2°C 62% Calm Calm -- 29.97 in1014.9 mb - 0.00 in0.0 mm 0.00 in0.0 mm
08:10 PM 72.5°F22.5°C 58.7°F14.8°C 62% Calm Calm -- 29.97 in1014.9 mb - 0.00 in0.0 mm 0.00 in0.0 mm
08:20 PM 71.8°F22.1°C 58.5°F14.7°C 63% Calm Calm -- 29.97 in1014.9 mb - 0.00 in0.0 mm 0.00 in0.0 mm
08:30 PM 71.0°F21.7°C 57.8°F14.3°C 63% Calm Calm -- 29.97 in1014.9 mb - 0.00 in0.0 mm 0.00 in0.0 mm
08:40 PM 70.3°F21.3°C 57.6°F14.2°C 64% Calm Calm -- 29.97 in1014.9 mb - 0.00 in0.0 mm 0.00 in0.0 mm
08:50 PM 69.6°F20.9°C 56.9°F13.8°C 64% Calm Calm -- 29.97 in1014.9 mb - 0.00 in0.0 mm 0.00 in0.0 mm
09:00 PM 69.1°F20.6°C 56.8°F13.8°C 65% Calm Calm -- 29.97 in1014.9 mb - 0.00 in0.0 mm 0.00 in0.0 mm
09:10 PM 68.5°F20.3°C 56.7°F13.7°C 66% Calm Calm -- 29.97 in1014.9 mb - 0.00 in0.0 mm 0.00 in0.0 mm
09:20 PM 68.0°F20.0°C 57.0°F13.9°C 68% Calm Calm -- 29.97 in1014.9 mb - 0.00 in0.0 mm 0.00 in0.0 mm
09:30 PM 67.3°F19.6°C 56.8°F13.8°C 69% Calm Calm -- 29.97 in1014.9 mb - 0.00 in0.0 mm 0.00 in0.0 mm
09:40 PM 66.5°F19.2°C 56.4°F13.6°C 70% Calm Calm -- 29.97 in1014.9 mb - 0.00 in0.0 mm 0.00 in0.0 mm
09:50 PM 65.8°F18.8°C 56.6°F13.7°C 72% Calm Calm -- 29.97 in1014.9 mb - 0.00 in0.0 mm 0.00 in0.0 mm
10:00 PM 65.1°F18.4°C 56.2°F13.4°C 73% Calm Calm -- 29.97 in1014.9 mb - 0.00 in0.0 mm 0.00 in0.0 mm
10:10 PM 64.4°F18.0°C 56.3°F13.5°C 75% Calm Calm -- 29.97 in1014.9 mb - 0.00 in0.0 mm 0.00 in0.0 mm
10:20 PM 63.9°F17.7°C 56.1°F13.4°C 76% Calm Calm -- 29.97 in1014.9 mb - 0.00 in0.0 mm 0.00 in0.0 mm
10:30 PM 63.4°F17.4°C 55.7°F13.2°C 76% Calm Calm -- 29.97 in1014.9 mb - 0.00 in0.0 mm 0.00 in0.0 mm
10:40 PM 63.0°F17.2°C 55.6°F13.1°C 77% Calm Calm -- 29.97 in1014.9 mb - 0.00 in0.0 mm 0.00 in0.0 mm
10:50 PM 62.6°F17.0°C 55.6°F13.1°C 78% Calm Calm -- 29.97 in1014.9 mb - 0.00 in0.0 mm 0.00 in0.0 mm
11:00 PM 62.1°F16.7°C 55.5°F13.1°C 79% Calm Calm -- 29.97 in1014.9 mb - 0.00 in0.0 mm 0.00 in0.0 mm
11:10 PM 61.7°F16.5°C 55.5°F13.1°C 80% Calm Calm -- 29.97 in1014.9 mb - 0.00 in0.0 mm 0.00 in0.0 mm
11:20 PM 61.3°F16.3°C 55.1°F12.8°C 80% Calm Calm -- 29.97 in1014.9 mb - 0.00 in0.0 mm 0.00 in0.0 mm
11:30 PM 61.0°F16.1°C 55.1°F12.8°C 81% Calm Calm -- 29.97 in1014.9 mb - 0.00 in0.0 mm 0.00 in0.0 mm
11:40 PM 60.7°F15.9°C 55.1°F12.8°C 82% Calm Calm 2.7 mph4.3 kmh 29.97 in1014.9 mb - 0.00 in0.0 mm 0.00 in0.0 mm
11:50 PM 60.4°F15.8°C 54.9°F12.7°C 82% Calm Calm -- 29.97 in1014.9 mb - 0.00 in0.0 mm 0.00 in0.0 mm